createdAt,value
2023-02-28T00:01:31.725Z,6.21
2023-02-28T00:03:59.105Z,6.25
2023-02-28T00:06:25.943Z,6.26
2023-02-28T00:08:53.040Z,6.23
2023-02-28T00:11:19.919Z,6.23
2023-02-28T00:13:47.620Z,6.21
2023-02-28T00:16:20.429Z,6.20
2023-02-28T00:18:48.664Z,6.18
2023-02-28T00:21:16.300Z,6.14
2023-02-28T00:23:43.580Z,6.15
2023-02-28T00:26:10.356Z,6.18
2023-02-28T00:28:37.477Z,6.18
2023-02-28T00:31:04.447Z,6.15
2023-02-28T00:33:31.571Z,6.17
2023-02-28T00:36:09.165Z,6.07
2023-02-28T00:38:36.335Z,6.12
2023-02-28T00:41:06.174Z,6.15
2023-02-28T00:43:34.464Z,6.16
2023-02-28T00:46:01.593Z,6.14
2023-02-28T00:48:28.738Z,6.08
2023-02-28T00:50:55.572Z,6.10
2023-02-28T00:53:23.087Z,6.09
2023-02-28T00:55:50.904Z,6.05
2023-02-28T00:58:18.027Z,6.02
2023-02-28T01:00:48.958Z,6.04
2023-02-28T01:03:17.901Z,6.05
2023-02-28T01:05:44.787Z,6.04
2023-02-28T01:08:12.047Z,6.03
2023-02-28T01:10:39.345Z,6.02
2023-02-28T01:13:06.414Z,5.99
2023-02-28T01:15:33.525Z,5.99
2023-02-28T01:18:00.593Z,5.95
2023-02-28T01:20:27.366Z,5.97
2023-02-28T01:22:54.419Z,5.94
2023-02-28T01:25:21.155Z,5.95
2023-02-28T01:27:48.280Z,5.96
2023-02-28T01:30:15.512Z,5.91
2023-02-28T01:32:42.584Z,5.88
2023-02-28T01:35:09.555Z,5.87
2023-02-28T01:37:36.983Z,5.87
2023-02-28T01:40:04.277Z,5.87
2023-02-28T01:42:31.339Z,5.84
2023-02-28T01:45:04.330Z,5.79
2023-02-28T01:47:34.322Z,5.80
2023-02-28T01:50:02.174Z,5.79
2023-02-28T01:52:29.436Z,5.72
2023-02-28T01:54:56.929Z,5.74
2023-02-28T01:57:26.463Z,5.75
2023-02-28T01:59:59.521Z,5.70
2023-02-28T02:02:26.736Z,5.68
2023-02-28T02:05:00.000Z,5.68
2023-02-28T02:07:27.115Z,5.63
2023-02-28T02:10:17.039Z,5.64
2023-02-28T02:13:15.155Z,5.62
2023-02-28T02:15:47.741Z,5.61
2023-02-28T02:18:27.064Z,5.53
2023-02-28T02:20:56.740Z,5.56
2023-02-28T02:23:42.520Z,5.51
2023-02-28T02:26:28.146Z,5.51
2023-02-28T02:29:08.279Z,5.45
2023-02-28T02:31:43.294Z,5.49
2023-02-28T02:34:13.290Z,5.47
2023-02-28T02:36:41.462Z,5.42
2023-02-28T02:39:17.822Z,5.32
2023-02-28T02:41:53.151Z,5.37
2023-02-28T02:44:28.505Z,5.38
2023-02-28T02:47:22.007Z,5.36
2023-02-28T02:49:53.400Z,5.34
2023-02-28T02:52:23.351Z,5.35
2023-02-28T02:54:50.893Z,5.34
2023-02-28T02:57:41.550Z,5.31
2023-02-28T03:00:09.520Z,5.25
2023-02-28T03:02:37.399Z,5.24
2023-02-28T03:05:07.720Z,5.22
2023-02-28T03:07:34.435Z,5.19
2023-02-28T03:10:02.315Z,5.17
2023-02-28T03:12:35.096Z,5.16
2023-02-28T03:15:09.233Z,5.17
2023-02-28T03:17:35.921Z,5.14
2023-02-28T03:20:17.940Z,5.14
2023-02-28T03:22:50.671Z,5.11
2023-02-28T03:25:32.658Z,5.09
2023-02-28T03:28:02.286Z,5.08
2023-02-28T03:30:55.717Z,5.06
2023-02-28T03:33:43.159Z,5.02
2023-02-28T03:36:14.087Z,4.98
2023-02-28T03:38:40.844Z,4.92
2023-02-28T03:41:13.272Z,4.90
2023-02-28T03:43:41.418Z,4.95
2023-02-28T03:46:11.475Z,4.94
2023-02-28T03:48:45.257Z,4.86
2023-02-28T03:51:15.257Z,4.86
2023-02-28T03:54:03.882Z,4.87
2023-02-28T03:56:34.144Z,4.90
2023-02-28T03:59:21.683Z,4.88
2023-02-28T04:01:49.608Z,4.75
2023-02-28T04:04:17.137Z,4.77
2023-02-28T04:06:44.362Z,4.80
2023-02-28T04:11:46.977Z,4.75
2023-02-28T04:14:13.786Z,4.72
2023-02-28T04:16:41.928Z,4.71
2023-02-28T04:19:09.544Z,4.67
2023-02-28T04:21:40.085Z,4.66
2023-02-28T04:24:08.453Z,4.65
2023-02-28T04:26:37.037Z,4.59
2023-02-28T04:29:05.249Z,4.59
2023-02-28T04:31:33.056Z,4.51
2023-02-28T04:34:00.275Z,4.53
2023-02-28T04:36:27.594Z,4.53
2023-02-28T04:38:54.566Z,4.55
2023-02-28T04:41:21.938Z,4.55
2023-02-28T04:43:48.662Z,4.55
2023-02-28T04:46:16.359Z,4.52
2023-02-28T04:48:44.720Z,4.48
2023-02-28T04:51:13.149Z,4.45
2023-02-28T04:53:40.743Z,4.44
2023-02-28T04:56:08.282Z,4.43
2023-02-28T04:58:35.420Z,4.42
2023-02-28T05:01:18.221Z,4.40
2023-02-28T05:03:45.064Z,4.41
2023-02-28T05:06:12.651Z,4.40
2023-02-28T05:08:39.787Z,4.34
2023-02-28T05:11:26.771Z,4.34
2023-02-28T05:13:54.716Z,4.33
2023-02-28T05:16:21.995Z,4.35
2023-02-28T05:18:48.908Z,4.28
2023-02-28T05:21:25.585Z,4.30
2023-02-28T05:23:53.483Z,4.28
2023-02-28T05:26:20.760Z,4.27
2023-02-28T05:28:47.516Z,4.27
2023-02-28T05:31:14.850Z,4.25
2023-02-28T05:33:41.630Z,4.24
2023-02-28T05:36:09.013Z,4.22
2023-02-28T05:38:37.830Z,4.22
2023-02-28T05:41:12.451Z,4.20
2023-02-28T05:43:39.246Z,4.19
2023-02-28T05:46:07.449Z,4.18
2023-02-28T05:48:35.429Z,4.18
2023-02-28T05:51:03.547Z,4.18
2023-02-28T05:53:30.436Z,4.15
2023-02-28T05:55:57.521Z,4.16
2023-02-28T05:58:26.467Z,4.15
2023-02-28T06:00:53.527Z,4.14
2023-02-28T06:03:20.275Z,4.12
2023-02-28T06:05:47.116Z,4.11
2023-02-28T06:08:14.181Z,4.09
2023-02-28T06:10:40.944Z,4.09
2023-02-28T06:13:08.011Z,4.10
2023-02-28T06:15:34.932Z,4.08
2023-02-28T06:18:02.018Z,4.07
2023-02-28T06:20:31.631Z,4.04
2023-02-28T06:23:01.563Z,4.06
2023-02-28T06:25:28.448Z,4.04
2023-02-28T06:27:55.744Z,4.03
2023-02-28T06:30:26.251Z,4.04
2023-02-28T06:32:54.048Z,4.06
2023-02-28T06:35:20.985Z,4.02
2023-02-28T06:37:48.252Z,4.06
2023-02-28T06:40:15.281Z,4.08
2023-02-28T06:42:42.502Z,4.09
2023-02-28T06:45:10.665Z,4.07
2023-02-28T06:47:39.123Z,4.09
2023-02-28T06:50:06.507Z,4.07
2023-02-28T06:52:33.828Z,4.08
2023-02-28T06:55:04.001Z,4.05
2023-02-28T06:57:34.596Z,4.07
2023-02-28T07:00:01.975Z,4.10
2023-02-28T07:02:29.124Z,4.11
2023-02-28T07:04:56.659Z,4.15
2023-02-28T07:07:23.765Z,4.16
2023-02-28T07:09:50.504Z,4.16
2023-02-28T07:12:17.610Z,4.18
2023-02-28T07:14:44.335Z,4.20
2023-02-28T07:17:13.018Z,4.22
2023-02-28T07:19:40.338Z,4.24
2023-02-28T07:22:07.821Z,4.25
2023-02-28T07:24:34.662Z,4.29
2023-02-28T07:27:02.517Z,4.35
2023-02-28T07:29:29.569Z,4.34
2023-02-28T07:31:57.040Z,4.39
2023-02-28T07:34:23.905Z,4.43
2023-02-28T07:36:54.598Z,4.46
2023-02-28T07:39:22.281Z,4.49
2023-02-28T07:41:49.447Z,4.53
2023-02-28T07:44:16.205Z,4.55
2023-02-28T07:46:43.354Z,4.54
2023-02-28T07:49:10.160Z,4.55
2023-02-28T07:51:37.397Z,4.57
2023-02-28T07:54:04.404Z,4.63
2023-02-28T07:56:31.802Z,4.68
2023-02-28T07:58:58.840Z,4.71
2023-02-28T08:01:26.206Z,4.72
2023-02-28T08:03:53.070Z,4.72
2023-02-28T08:06:22.605Z,4.74
2023-02-28T08:08:49.626Z,4.77
2023-02-28T08:11:17.252Z,4.80
2023-02-28T08:13:45.117Z,4.83
2023-02-28T08:16:15.382Z,4.87
2023-02-28T08:18:42.291Z,4.87
2023-02-28T08:21:10.125Z,4.90
2023-02-28T08:23:37.105Z,4.93
2023-02-28T08:26:04.759Z,4.95
2023-02-28T08:28:31.590Z,4.99
2023-02-28T08:30:58.724Z,5.02
2023-02-28T08:33:25.702Z,5.05
2023-02-28T08:35:56.547Z,5.08
2023-02-28T08:38:23.883Z,5.10
2023-02-28T08:40:50.978Z,5.11
2023-02-28T08:43:17.882Z,5.02
2023-02-28T08:45:45.047Z,5.10
2023-02-28T08:48:11.862Z,5.16
2023-02-28T08:50:38.909Z,5.12
2023-02-28T08:53:05.678Z,5.07
2023-02-28T08:55:32.728Z,5.05
2023-02-28T08:57:59.568Z,5.10
2023-02-28T09:00:26.647Z,5.18
2023-02-28T09:02:53.541Z,5.19
2023-02-28T09:05:20.634Z,5.25
2023-02-28T09:07:47.379Z,5.29
2023-02-28T09:10:14.516Z,5.36
2023-02-28T09:12:41.256Z,5.35
2023-02-28T09:15:08.891Z,5.36
2023-02-28T09:17:35.700Z,5.40
2023-02-28T09:20:02.729Z,5.45
2023-02-28T09:22:29.571Z,5.55
2023-02-28T09:24:56.632Z,5.56
2023-02-28T09:27:23.367Z,5.52
2023-02-28T09:29:50.562Z,5.56
2023-02-28T09:32:19.099Z,5.63
2023-02-28T09:34:46.319Z,5.71
2023-02-28T09:37:13.065Z,5.67
2023-02-28T09:39:40.112Z,5.66
2023-02-28T09:42:08.724Z,5.78
2023-02-28T09:44:41.273Z,5.82
2023-02-28T09:47:16.170Z,5.82
2023-02-28T09:49:46.735Z,5.77
2023-02-28T09:52:19.010Z,5.79
2023-02-28T09:54:46.208Z,5.90
2023-02-28T09:57:36.046Z,6.03
2023-02-28T10:00:19.400Z,5.98
2023-02-28T10:02:54.968Z,6.10
2023-02-28T10:05:24.695Z,6.13
2023-02-28T10:07:59.968Z,6.14
2023-02-28T10:10:39.444Z,6.21
2023-02-28T10:13:14.299Z,6.23
2023-02-28T10:15:41.587Z,6.53
2023-02-28T10:18:12.863Z,6.64
2023-02-28T10:20:41.219Z,6.63
2023-02-28T10:23:13.352Z,6.56
2023-02-28T10:25:40.600Z,6.69
2023-02-28T10:28:14.789Z,6.68
2023-02-28T10:30:49.850Z,6.81
2023-02-28T10:33:23.656Z,6.91
2023-02-28T10:35:51.506Z,7.09
2023-02-28T10:38:21.284Z,7.26
2023-02-28T10:40:48.438Z,7.33
2023-02-28T10:43:19.247Z,7.41
2023-02-28T10:46:09.536Z,7.43
2023-02-28T10:48:45.082Z,7.42
2023-02-28T10:51:13.512Z,7.61
2023-02-28T10:54:00.994Z,7.72
2023-02-28T10:56:28.968Z,8.02
2023-02-28T10:59:31.416Z,8.19
2023-02-28T11:01:58.677Z,8.24
2023-02-28T11:04:30.212Z,8.14
2023-02-28T11:07:01.804Z,8.30
2023-02-28T11:09:32.806Z,8.29
2023-02-28T11:11:59.913Z,8.33
2023-02-28T11:14:28.676Z,8.58
2023-02-28T11:16:55.967Z,8.70
2023-02-28T11:19:39.092Z,8.80
2023-02-28T11:22:06.161Z,8.86
2023-02-28T11:24:36.534Z,8.88
2023-02-28T11:27:03.862Z,8.94
2023-02-28T11:29:32.311Z,9.05
2023-02-28T11:32:05.456Z,9.16
2023-02-28T11:34:32.892Z,9.20
2023-02-28T11:37:00.246Z,9.27
2023-02-28T11:39:27.733Z,9.29
2023-02-28T11:42:33.363Z,9.44
2023-02-28T11:45:13.001Z,9.50
2023-02-28T11:47:55.090Z,9.54
2023-02-28T11:50:48.080Z,9.61
2023-02-28T11:53:24.231Z,9.65
2023-02-28T11:55:57.077Z,9.71
2023-02-28T11:58:42.183Z,9.67
2023-02-28T12:01:25.249Z,9.71
2023-02-28T12:04:18.474Z,9.63
2023-02-28T12:07:10.300Z,9.83
2023-02-28T12:09:42.775Z,9.92
2023-02-28T12:12:32.854Z,9.99
2023-02-28T12:15:33.941Z,9.89
2023-02-28T12:18:11.216Z,9.97
2023-02-28T12:20:47.580Z,10.08
2023-02-28T12:23:23.316Z,10.19
2023-02-28T12:25:53.609Z,10.25
2023-02-28T12:28:23.164Z,10.29
2023-02-28T12:31:01.217Z,10.35
2023-02-28T12:33:33.694Z,10.43
2023-02-28T12:36:02.137Z,10.47
2023-02-28T12:38:48.325Z,10.39
2023-02-28T12:42:11.045Z,10.36
2023-02-28T12:44:46.144Z,10.36
2023-02-28T12:47:17.752Z,10.44
2023-02-28T12:49:49.111Z,10.46
2023-02-28T12:52:18.808Z,10.50
2023-02-28T12:54:56.144Z,10.59
2023-02-28T12:57:33.219Z,10.63
2023-02-28T13:00:06.292Z,10.60
2023-02-28T13:03:04.520Z,10.64
2023-02-28T13:05:46.283Z,10.69
2023-02-28T13:08:31.995Z,10.68
2023-02-28T13:10:58.761Z,10.74
2023-02-28T13:13:32.905Z,10.83
2023-02-28T13:16:03.524Z,10.84
2023-02-28T13:18:41.177Z,10.85
2023-02-28T13:21:29.949Z,10.87
2023-02-28T13:23:59.914Z,10.75
2023-02-28T13:26:52.952Z,10.79
2023-02-28T13:29:29.481Z,10.90
2023-02-28T13:32:09.203Z,10.90
2023-02-28T13:34:43.291Z,10.87
2023-02-28T13:37:22.483Z,10.98
2023-02-28T13:39:50.262Z,10.94
2023-02-28T13:42:23.094Z,11.00
2023-02-28T13:45:02.475Z,10.89
2023-02-28T13:47:29.985Z,10.99
2023-02-28T13:50:26.529Z,11.03
2023-02-28T13:53:12.005Z,11.02
2023-02-28T13:56:08.717Z,11.08
2023-02-28T13:58:56.442Z,11.03
2023-02-28T14:01:40.147Z,11.06
2023-02-28T14:04:28.610Z,11.06
2023-02-28T14:06:55.943Z,11.08
2023-02-28T14:09:31.740Z,11.11
2023-02-28T14:11:59.106Z,11.03
2023-02-28T14:14:38.126Z,11.07
2023-02-28T14:17:10.655Z,11.08
2023-02-28T14:19:38.119Z,11.09
2023-02-28T14:22:43.566Z,11.03
2023-02-28T14:25:28.711Z,10.95
2023-02-28T14:28:12.203Z,11.06
2023-02-28T14:30:51.751Z,11.06
2023-02-28T14:33:31.014Z,11.01
2023-02-28T14:36:05.730Z,11.04
2023-02-28T14:38:47.508Z,11.06
2023-02-28T14:41:23.481Z,11.05
2023-02-28T14:43:52.702Z,11.00
2023-02-28T14:46:20.283Z,10.91
2023-02-28T14:48:48.627Z,10.88
2023-02-28T14:51:19.402Z,10.91
2023-02-28T14:53:46.539Z,10.92
2023-02-28T14:56:24.851Z,10.95
2023-02-28T14:58:56.055Z,10.98
2023-02-28T15:01:23.633Z,10.92
2023-02-28T15:03:58.639Z,10.90
2023-02-28T15:06:26.811Z,10.89
2023-02-28T15:09:18.003Z,10.88
2023-02-28T15:11:47.480Z,10.94
2023-02-28T15:14:20.424Z,10.85
2023-02-28T15:16:50.691Z,10.88
2023-02-28T15:19:26.081Z,10.83
2023-02-28T15:22:01.374Z,10.83
2023-02-28T15:24:32.785Z,10.79
2023-02-28T15:27:01.189Z,10.76
2023-02-28T15:29:29.711Z,10.76
2023-02-28T15:32:03.643Z,10.75
2023-02-28T15:34:45.881Z,10.72
2023-02-28T15:37:32.120Z,10.70
2023-02-28T15:40:32.878Z,10.68
2023-02-28T15:43:16.742Z,10.67
2023-02-28T15:45:54.269Z,10.63
2023-02-28T15:48:22.555Z,10.61
2023-02-28T15:50:58.115Z,10.59
2023-02-28T15:53:33.612Z,10.57
2023-02-28T15:56:06.355Z,10.52
2023-02-28T15:58:33.779Z,10.51
2023-02-28T16:01:02.671Z,10.50
2023-02-28T16:03:45.427Z,10.49
2023-02-28T16:06:35.586Z,10.45
2023-02-28T16:09:02.691Z,10.43
2023-02-28T16:11:30.292Z,10.39
2023-02-28T16:13:57.316Z,10.37
2023-02-28T16:16:25.390Z,10.35
2023-02-28T16:18:52.340Z,10.30
2023-02-28T16:21:19.458Z,10.26
2023-02-28T16:23:46.269Z,10.24
2023-02-28T16:26:19.850Z,10.21
2023-02-28T16:28:46.690Z,10.18
2023-02-28T16:31:17.440Z,10.14
2023-02-28T16:33:45.754Z,10.09
2023-02-28T16:36:17.745Z,10.05
2023-02-28T16:38:44.653Z,10.01
2023-02-28T16:41:17.598Z,9.97
2023-02-28T16:43:44.961Z,9.94
2023-02-28T16:46:13.779Z,9.88
2023-02-28T16:48:41.560Z,9.86
2023-02-28T16:51:17.711Z,9.80
2023-02-28T16:53:44.901Z,9.77
2023-02-28T16:56:22.638Z,9.73
2023-02-28T16:58:49.682Z,9.67
2023-02-28T17:01:17.272Z,9.65
2023-02-28T17:03:44.149Z,9.66
2023-02-28T17:06:20.314Z,9.73
2023-02-28T17:08:47.364Z,9.68
2023-02-28T17:11:14.524Z,9.62
2023-02-28T17:13:41.305Z,9.56
2023-02-28T17:16:30.818Z,9.50
2023-02-28T17:18:59.752Z,9.46
2023-02-28T17:21:26.857Z,9.42
2023-02-28T17:23:53.650Z,9.39
2023-02-28T17:26:21.056Z,9.37
2023-02-28T17:28:49.011Z,9.32
2023-02-28T17:31:16.223Z,9.26
2023-02-28T17:33:43.118Z,9.19
2023-02-28T17:36:17.368Z,9.18
2023-02-28T17:38:44.228Z,9.15
2023-02-28T17:41:11.966Z,9.13
2023-02-28T17:43:38.733Z,9.07
2023-02-28T17:46:06.494Z,9.04
2023-02-28T17:48:34.162Z,8.98
2023-02-28T17:51:01.266Z,8.95
2023-02-28T17:53:28.251Z,8.89
2023-02-28T17:55:55.338Z,8.85
2023-02-28T17:58:22.187Z,8.82
2023-02-28T18:00:54.678Z,8.76
2023-02-28T18:03:21.891Z,8.73
2023-02-28T18:05:49.165Z,8.67
2023-02-28T18:08:15.986Z,8.67
2023-02-28T18:10:43.146Z,8.61
2023-02-28T18:13:13.497Z,8.58
2023-02-28T18:15:40.762Z,8.53
2023-02-28T18:18:07.734Z,8.53
2023-02-28T18:20:35.470Z,8.47
2023-02-28T18:23:02.378Z,8.43
2023-02-28T18:25:29.646Z,8.43
2023-02-28T18:27:59.335Z,8.39
2023-02-28T18:30:31.484Z,8.33
2023-02-28T18:32:59.119Z,8.33
2023-02-28T18:35:35.396Z,8.27
2023-02-28T18:38:15.010Z,8.22
2023-02-28T18:40:42.469Z,8.23
2023-02-28T18:43:09.585Z,8.18
2023-02-28T18:45:38.552Z,8.17
2023-02-28T18:48:05.855Z,8.13
2023-02-28T18:50:32.954Z,8.11
2023-02-28T18:52:59.878Z,8.08
2023-02-28T18:55:27.903Z,8.03
2023-02-28T18:57:54.747Z,8.01
2023-02-28T19:00:22.729Z,7.98
2023-02-28T19:02:50.623Z,7.93
2023-02-28T19:05:18.524Z,7.90
2023-02-28T19:07:46.012Z,7.88
2023-02-28T19:10:13.565Z,7.85
2023-02-28T19:12:42.346Z,7.78
2023-02-28T19:15:09.827Z,7.75
2023-02-28T19:17:36.850Z,7.74
2023-02-28T19:20:04.999Z,7.68
2023-02-28T19:22:32.025Z,7.68
2023-02-28T19:24:59.230Z,7.63
2023-02-28T19:27:26.044Z,7.58
2023-02-28T19:29:53.301Z,7.52
2023-02-28T19:32:20.490Z,7.45
2023-02-28T19:34:47.892Z,7.50
2023-02-28T19:37:14.733Z,7.42
2023-02-28T19:39:45.305Z,7.38
2023-02-28T19:42:14.027Z,7.45
2023-02-28T19:44:41.389Z,7.34
2023-02-28T19:47:08.333Z,7.30
2023-02-28T19:49:35.449Z,7.25
2023-02-28T19:52:02.973Z,7.21
2023-02-28T19:54:30.452Z,7.14
2023-02-28T19:56:58.474Z,7.12
2023-02-28T19:59:31.324Z,7.18
2023-02-28T20:02:05.723Z,7.06
2023-02-28T20:04:32.877Z,7.10
2023-02-28T20:06:59.731Z,6.99
2023-02-28T20:09:31.003Z,7.02
2023-02-28T20:11:59.500Z,7.01
2023-02-28T20:14:26.816Z,6.87
2023-02-28T20:16:54.337Z,6.95
2023-02-28T20:19:22.624Z,6.95
2023-02-28T20:21:49.418Z,6.83
2023-02-28T20:24:16.761Z,6.86
2023-02-28T20:26:43.666Z,6.80
2023-02-28T20:29:11.810Z,6.88
2023-02-28T20:31:38.722Z,6.94
2023-02-28T20:34:05.916Z,6.96
2023-02-28T20:36:33.041Z,6.96
2023-02-28T20:39:00.610Z,6.98
2023-02-28T20:41:27.463Z,6.98
2023-02-28T20:43:55.768Z,6.97
2023-02-28T20:46:22.728Z,7.01
2023-02-28T20:48:49.904Z,7.15
2023-02-28T20:51:16.845Z,7.26
2023-02-28T20:53:43.933Z,7.29
2023-02-28T20:56:13.742Z,7.36
2023-02-28T20:58:40.957Z,7.43
2023-02-28T21:01:18.553Z,7.55
2023-02-28T21:03:49.454Z,7.64
2023-02-28T21:06:20.296Z,7.57
2023-02-28T21:08:47.454Z,7.42
2023-02-28T21:11:19.037Z,7.34
2023-02-28T21:13:46.612Z,7.23
2023-02-28T21:16:15.055Z,7.07
2023-02-28T21:18:42.305Z,6.98
2023-02-28T21:21:17.005Z,6.93
2023-02-28T21:23:46.600Z,6.90
2023-02-28T21:26:15.440Z,6.76
2023-02-28T21:28:44.274Z,6.80
2023-02-28T21:31:13.406Z,6.72
2023-02-28T21:33:40.706Z,6.68
2023-02-28T21:36:10.039Z,6.65
2023-02-28T21:38:37.918Z,6.61
2023-02-28T21:41:09.329Z,6.58
2023-02-28T21:43:36.413Z,6.52
2023-02-28T21:46:08.081Z,6.50
2023-02-28T21:48:35.250Z,6.54
2023-02-28T21:51:06.648Z,6.41
2023-02-28T21:53:35.891Z,6.39
2023-02-28T21:56:16.596Z,6.39
2023-02-28T21:58:43.709Z,6.38
2023-02-28T22:01:12.264Z,6.34
2023-02-28T22:03:39.380Z,6.35
2023-02-28T22:06:26.424Z,6.29
2023-02-28T22:08:56.418Z,6.24
2023-02-28T22:11:23.746Z,6.19
2023-02-28T22:13:56.163Z,6.13
2023-02-28T22:16:23.858Z,6.08
2023-02-28T22:18:50.940Z,6.08
2023-02-28T22:21:18.145Z,6.10
2023-02-28T22:23:45.550Z,6.07
2023-02-28T22:26:13.942Z,6.02
2023-02-28T22:28:41.140Z,6.01
2023-02-28T22:31:18.141Z,5.94
2023-02-28T22:33:45.475Z,5.92
2023-02-28T22:36:13.659Z,5.86
2023-02-28T22:38:41.799Z,5.78
2023-02-28T22:41:08.670Z,5.85
2023-02-28T22:43:35.852Z,5.83
2023-02-28T22:46:04.027Z,5.82
2023-02-28T22:48:31.300Z,5.79
2023-02-28T22:51:05.427Z,5.79
2023-02-28T22:53:33.614Z,5.73
2023-02-28T22:56:00.363Z,5.71
2023-02-28T22:58:27.572Z,5.74
2023-02-28T23:00:57.911Z,5.67
2023-02-28T23:03:25.594Z,5.65
2023-02-28T23:05:52.798Z,5.56
2023-02-28T23:08:23.344Z,5.60
2023-02-28T23:10:50.753Z,5.54
2023-02-28T23:13:18.707Z,5.55
2023-02-28T23:15:45.993Z,5.49
2023-02-28T23:18:13.262Z,5.48
2023-02-28T23:20:40.225Z,5.36
2023-02-28T23:23:07.335Z,5.42
2023-02-28T23:25:34.134Z,5.41
2023-02-28T23:28:01.203Z,5.36
2023-02-28T23:30:27.994Z,5.36
2023-02-28T23:32:55.344Z,5.26
2023-02-28T23:35:22.645Z,5.30
2023-02-28T23:37:49.837Z,5.32
2023-02-28T23:40:16.975Z,5.23
2023-02-28T23:42:44.930Z,5.24
2023-02-28T23:45:11.726Z,5.21
2023-02-28T23:47:38.801Z,5.16
2023-02-28T23:50:05.989Z,5.21
2023-02-28T23:52:33.101Z,5.16
2023-02-28T23:55:00.923Z,5.15
2023-02-28T23:57:29.724Z,5.08
2023-02-28T23:59:56.650Z,5.09
